Hoopersville, Maryland
Current Conditions -  °F | °C
As of 3:52 PM on Saturday 22 Nov 2014 (Local Time) from KNHK Reporting Station
Scattered Clouds Scattered Clouds  
Wind Chill: 44°   Ceiling: Unl
Heat Index: 47°   Visibility: 10mi
Dew Point: 14°   Wind: 7mph
Humidity: 27%   Direction: 220°SW
Pressure: 30.37"   Gusts: NA
Location:  38.3287°N, 76.2289°W
Report Text: KNHK 222052Z 22006KT 10SM SCT250 08/M10 A3037 RMK AO2 SLP282 T00831100 56021
Loading
Personal Weather Stations






























Interactive Weather Map New forecast layout! Learn more

10-Day Weather Forecast

Advertisements
Track Severe Weather on mobile